createdAt,value
2023-02-03T00:01:01.638Z,46.08
2023-02-03T00:03:27.955Z,45.90
2023-02-03T00:05:54.510Z,45.88
2023-02-03T00:08:20.835Z,45.91
2023-02-03T00:10:47.166Z,45.98
2023-02-03T00:13:13.484Z,46.07
2023-02-03T00:15:39.821Z,46.02
2023-02-03T00:18:06.174Z,46.20
2023-02-03T00:20:32.562Z,46.06
2023-02-03T00:23:08.629Z,46.06
2023-02-03T00:25:34.961Z,46.18
2023-02-03T00:28:01.375Z,46.42
2023-02-03T00:30:28.165Z,46.23
2023-02-03T00:32:54.714Z,46.28
2023-02-03T00:35:21.089Z,46.21
2023-02-03T00:37:53.941Z,46.44
2023-02-03T00:40:21.163Z,46.40
2023-02-03T00:42:47.467Z,46.28
2023-02-03T00:45:13.793Z,46.37
2023-02-03T00:47:40.155Z,46.25
2023-02-03T00:50:06.897Z,46.14
2023-02-03T00:52:34.575Z,46.38
2023-02-03T00:55:01.911Z,46.19
2023-02-03T00:57:28.297Z,46.45
2023-02-03T00:59:54.884Z,46.36
2023-02-03T01:02:21.253Z,46.47
2023-02-03T01:04:47.643Z,46.25
2023-02-03T01:07:13.973Z,46.23
2023-02-03T01:09:40.327Z,46.14
2023-02-03T01:12:06.659Z,46.25
2023-02-03T01:14:33.555Z,46.36
2023-02-03T01:17:00.249Z,46.17
2023-02-03T01:19:26.639Z,46.21
2023-02-03T01:21:52.977Z,46.03
2023-02-03T01:24:19.324Z,46.22
2023-02-03T01:26:45.709Z,46.16
2023-02-03T01:29:12.112Z,46.27
2023-02-03T01:31:39.688Z,46.21
2023-02-03T01:34:07.016Z,46.14
2023-02-03T01:36:33.995Z,46.21
2023-02-03T01:39:02.024Z,46.33
2023-02-03T01:41:30.551Z,46.22
2023-02-03T01:43:57.239Z,46.13
2023-02-03T01:46:39.920Z,46.38
2023-02-03T01:49:26.467Z,46.37
2023-02-03T01:51:53.578Z,46.21
2023-02-03T01:54:22.156Z,46.11
2023-02-03T01:56:49.508Z,46.09
2023-02-03T01:59:17.321Z,46.14
2023-02-03T02:01:43.966Z,46.18
2023-02-03T02:04:10.340Z,46.29
2023-02-03T02:06:36.695Z,46.34
2023-02-03T02:09:03.037Z,46.28
2023-02-03T02:11:29.423Z,46.21
2023-02-03T02:13:56.630Z,46.30
2023-02-03T02:16:36.188Z,46.34
2023-02-03T02:19:28.040Z,46.21
2023-02-03T02:22:11.869Z,46.11
2023-02-03T02:24:57.769Z,46.14
2023-02-03T02:27:39.054Z,46.35
2023-02-03T02:30:12.869Z,46.22
2023-02-03T02:32:58.448Z,46.23
2023-02-03T02:35:44.498Z,46.24
2023-02-03T02:38:13.871Z,46.09
2023-02-03T02:40:46.164Z,46.05
2023-02-03T02:43:13.405Z,46.05
2023-02-03T02:45:50.544Z,46.00
2023-02-03T02:48:19.684Z,46.09
2023-02-03T02:58:37.463Z,46.15
2023-02-03T03:01:04.362Z,46.03
2023-02-03T03:03:30.720Z,46.12
2023-02-03T03:05:58.854Z,46.07
2023-02-03T03:08:36.784Z,46.05
2023-02-03T03:11:03.318Z,46.03
2023-02-03T03:13:31.179Z,46.15
2023-02-03T03:15:58.950Z,45.93
2023-02-03T03:18:27.219Z,46.15
2023-02-03T03:20:53.599Z,45.99
2023-02-03T03:23:24.820Z,46.03
2023-02-03T03:25:53.638Z,46.10
2023-02-03T03:28:30.517Z,46.31
2023-02-03T03:30:56.957Z,46.22
2023-02-03T03:33:23.332Z,46.20
2023-02-03T03:35:53.696Z,46.25
2023-02-03T03:38:33.033Z,46.19
2023-02-03T03:41:02.045Z,46.06
2023-02-03T03:43:28.745Z,46.26
2023-02-03T03:45:56.020Z,46.23
2023-02-03T03:48:24.902Z,46.23
2023-02-03T03:50:52.039Z,46.24
2023-02-03T03:53:18.370Z,46.25
2023-02-03T03:55:45.628Z,46.24
2023-02-03T03:58:13.077Z,46.24
2023-02-03T04:00:42.500Z,46.21
2023-02-03T04:03:11.627Z,46.24
2023-02-03T04:05:38.422Z,46.32
2023-02-03T04:08:04.751Z,46.29
2023-02-03T04:10:38.039Z,46.32
2023-02-03T04:13:04.460Z,46.31
2023-02-03T04:15:30.986Z,46.25
2023-02-03T04:17:57.369Z,46.32
2023-02-03T04:20:24.124Z,46.30
2023-02-03T04:22:50.482Z,46.34
2023-02-03T04:25:16.812Z,46.33
2023-02-03T04:27:43.207Z,46.16
2023-02-03T04:30:09.992Z,46.22
2023-02-03T04:32:36.438Z,46.14
2023-02-03T04:35:03.083Z,46.30
2023-02-03T04:37:29.434Z,46.38
2023-02-03T04:39:55.955Z,46.31
2023-02-03T04:42:22.343Z,46.38
2023-02-03T04:44:48.666Z,46.22
2023-02-03T04:47:15.031Z,46.46
2023-02-03T04:49:41.353Z,46.45
2023-02-03T04:52:07.693Z,46.34
2023-02-03T04:54:34.298Z,46.43
2023-02-03T04:57:00.724Z,46.41
2023-02-03T04:59:27.072Z,46.24
2023-02-03T05:01:53.414Z,46.41
2023-02-03T05:04:19.745Z,46.43
2023-02-03T05:06:46.070Z,46.33
2023-02-03T05:09:12.439Z,46.44
2023-02-03T05:11:38.751Z,46.23
2023-02-03T05:14:05.067Z,46.62
2023-02-03T05:16:31.482Z,46.36
2023-02-03T05:18:57.852Z,46.42
2023-02-03T05:21:24.185Z,46.45
2023-02-03T05:23:50.534Z,46.43
2023-02-03T05:26:16.885Z,46.37
2023-02-03T05:28:43.199Z,46.41
2023-02-03T05:31:09.573Z,46.39
2023-02-03T05:33:35.936Z,46.35
2023-02-03T05:36:02.388Z,46.44
2023-02-03T05:38:28.714Z,46.55
2023-02-03T05:41:13.703Z,46.57
2023-02-03T05:43:40.037Z,46.44
2023-02-03T05:46:06.727Z,46.46
2023-02-03T05:48:33.095Z,46.47
2023-02-03T05:50:59.458Z,46.53
2023-02-03T05:53:26.116Z,46.44
2023-02-03T05:55:52.440Z,46.58
2023-02-03T05:58:18.786Z,46.57
2023-02-03T06:00:45.115Z,46.85
2023-02-03T06:03:11.547Z,46.78
2023-02-03T06:05:40.894Z,46.85
2023-02-03T06:08:07.503Z,46.82
2023-02-03T06:10:33.814Z,47.05
2023-02-03T06:13:00.164Z,46.85
2023-02-03T06:15:26.516Z,46.82
2023-02-03T06:17:52.845Z,46.93
2023-02-03T06:20:19.298Z,47.04
2023-02-03T06:22:45.662Z,47.33
2023-02-03T06:25:13.266Z,47.14
2023-02-03T06:27:39.786Z,47.28
2023-02-03T06:30:06.340Z,47.32
2023-02-03T06:32:32.966Z,47.57
2023-02-03T06:34:59.290Z,47.59
2023-02-03T06:37:25.633Z,47.28
2023-02-03T06:39:51.967Z,46.92
2023-02-03T06:42:18.613Z,46.46
2023-02-03T06:44:44.941Z,46.42
2023-02-03T06:47:11.353Z,46.97
2023-02-03T06:49:37.681Z,46.80
2023-02-03T06:52:04.021Z,46.15
2023-02-03T06:54:30.404Z,46.21
2023-02-03T06:56:56.745Z,45.68
2023-02-03T06:59:23.073Z,46.10
2023-02-03T07:01:49.490Z,45.58
2023-02-03T07:04:15.843Z,45.37
2023-02-03T07:06:42.175Z,45.31
2023-02-03T07:09:08.512Z,45.19
2023-02-03T07:11:34.851Z,45.28
2023-02-03T07:14:01.218Z,45.42
2023-02-03T07:16:27.710Z,45.29
2023-02-03T07:18:54.098Z,45.59
2023-02-03T07:21:20.413Z,45.36
2023-02-03T07:23:47.054Z,45.63
2023-02-03T07:26:13.370Z,45.60
2023-02-03T07:28:39.690Z,45.69
2023-02-03T07:31:08.116Z,45.79
2023-02-03T07:33:34.561Z,45.87
2023-02-03T07:36:00.906Z,45.88
2023-02-03T07:38:27.380Z,45.94
2023-02-03T07:40:53.700Z,45.99
2023-02-03T07:43:20.063Z,46.46
2023-02-03T07:45:46.387Z,45.61
2023-02-03T07:48:12.939Z,45.30
2023-02-03T07:50:39.309Z,45.26
2023-02-03T07:53:05.775Z,45.41
2023-02-03T07:55:32.551Z,45.54
2023-02-03T07:57:59.461Z,45.60
2023-02-03T08:00:27.226Z,44.93
2023-02-03T08:02:53.809Z,44.72
2023-02-03T08:05:20.171Z,44.59
2023-02-03T08:07:46.491Z,44.31
2023-02-03T08:10:13.152Z,44.42
2023-02-03T08:12:39.520Z,45.39
2023-02-03T08:15:06.097Z,45.45
2023-02-03T08:17:33.673Z,45.68
2023-02-03T08:19:59.979Z,45.61
2023-02-03T08:22:26.397Z,45.37
2023-02-03T08:24:52.730Z,44.99
2023-02-03T08:27:20.843Z,45.27
2023-02-03T08:29:47.229Z,45.21
2023-02-03T08:32:14.204Z,45.11
2023-02-03T08:34:40.608Z,45.35
2023-02-03T08:37:06.930Z,45.39
2023-02-03T08:39:33.445Z,45.33
2023-02-03T08:41:59.931Z,45.62
2023-02-03T08:44:26.251Z,45.46
2023-02-03T08:46:52.712Z,45.33
2023-02-03T08:49:19.180Z,45.38
2023-02-03T08:51:45.824Z,45.48
2023-02-03T08:54:12.165Z,45.51
2023-02-03T08:56:38.571Z,45.56
2023-02-03T08:59:04.929Z,45.90
2023-02-03T09:01:31.326Z,46.13
2023-02-03T09:03:57.671Z,45.92
2023-02-03T09:06:26.149Z,46.24
2023-02-03T09:08:52.660Z,45.99
2023-02-03T09:11:18.992Z,46.13
2023-02-03T09:13:48.672Z,45.83
2023-02-03T09:16:17.284Z,45.98
2023-02-03T09:18:43.842Z,46.27
2023-02-03T09:21:20.911Z,46.13
2023-02-03T09:24:00.297Z,46.29
2023-02-03T09:26:26.614Z,46.33
2023-02-03T09:28:52.959Z,45.66
2023-02-03T09:31:19.716Z,45.48
2023-02-03T09:33:46.125Z,45.54
2023-02-03T09:36:12.552Z,45.67
2023-02-03T09:38:38.916Z,45.74
2023-02-03T09:41:14.223Z,45.75
2023-02-03T09:43:40.477Z,45.59
2023-02-03T09:46:15.920Z,45.46
2023-02-03T09:48:43.396Z,45.34
2023-02-03T09:51:20.155Z,45.58
2023-02-03T09:53:48.673Z,45.67
2023-02-03T09:56:20.726Z,45.54
2023-02-03T09:58:47.061Z,45.76
2023-02-03T10:01:15.633Z,45.79
2023-02-03T10:03:41.940Z,46.00
2023-02-03T10:06:22.579Z,45.68
2023-02-03T10:09:09.824Z,46.31
2023-02-03T10:11:39.017Z,45.97
2023-02-03T10:14:09.206Z,45.77
2023-02-03T10:16:54.314Z,45.74
2023-02-03T10:19:22.074Z,45.88
2023-02-03T10:21:49.915Z,45.53
2023-02-03T10:24:20.311Z,45.70
2023-02-03T10:26:46.813Z,45.67
2023-02-03T10:29:21.264Z,45.93
2023-02-03T10:31:47.980Z,45.82
2023-02-03T10:34:15.909Z,45.98
2023-02-03T10:36:51.373Z,46.03
2023-02-03T10:39:26.053Z,45.95
2023-02-03T10:41:53.087Z,45.90
2023-02-03T10:44:19.414Z,45.99
2023-02-03T10:46:45.868Z,45.88
2023-02-03T10:49:15.091Z,45.87
2023-02-03T10:51:42.902Z,45.91
2023-02-03T10:54:29.143Z,46.14
2023-02-03T10:56:57.473Z,46.16
2023-02-03T10:59:27.612Z,47.28
2023-02-03T11:01:53.996Z,46.74
2023-02-03T11:04:24.273Z,45.69
2023-02-03T11:06:54.588Z,45.88
2023-02-03T11:09:40.173Z,45.58
2023-02-03T11:12:13.352Z,45.13
2023-02-03T11:14:40.576Z,45.24
2023-02-03T11:17:07.652Z,45.45
2023-02-03T11:19:33.998Z,45.11
2023-02-03T11:22:01.031Z,45.32
2023-02-03T11:24:28.278Z,45.51
2023-02-03T11:26:55.714Z,45.87
2023-02-03T11:29:29.011Z,44.95
2023-02-03T11:31:56.029Z,44.41
2023-02-03T11:34:25.910Z,44.61
2023-02-03T11:36:52.288Z,44.70
2023-02-03T11:39:19.878Z,45.21
2023-02-03T11:41:47.092Z,45.07
2023-02-03T11:44:17.552Z,44.87
2023-02-03T11:46:44.181Z,44.97
2023-02-03T11:49:20.449Z,45.37
2023-02-03T11:51:59.051Z,44.60
2023-02-03T11:54:40.581Z,44.94
2023-02-03T11:57:11.917Z,45.07
2023-02-03T11:59:45.534Z,45.14
2023-02-03T12:02:30.643Z,45.07
2023-02-03T12:04:58.715Z,45.12
2023-02-03T12:07:32.068Z,45.15
2023-02-03T12:10:03.852Z,44.87
2023-02-03T12:12:36.070Z,45.34
2023-02-03T12:15:05.518Z,45.29
2023-02-03T12:17:40.450Z,45.38
2023-02-03T12:20:29.135Z,45.32
2023-02-03T12:23:09.014Z,45.38
2023-02-03T12:26:02.045Z,45.50
2023-02-03T12:28:34.060Z,45.40
2023-02-03T12:31:03.995Z,45.53
2023-02-03T12:33:34.871Z,45.54
2023-02-03T12:36:05.988Z,45.36
2023-02-03T12:38:40.205Z,45.41
2023-02-03T12:41:08.626Z,45.44
2023-02-03T12:43:38.500Z,45.28
2023-02-03T12:46:11.038Z,45.30
2023-02-03T12:48:56.052Z,45.22
2023-02-03T12:51:30.919Z,44.97
2023-02-03T12:53:58.873Z,45.28
2023-02-03T12:56:30.930Z,44.88
2023-02-03T12:59:05.205Z,45.17
2023-02-03T13:01:33.102Z,45.11
2023-02-03T13:04:15.326Z,44.98
2023-02-03T13:06:43.463Z,45.40
2023-02-03T13:09:28.953Z,45.66
2023-02-03T13:12:13.668Z,45.95
2023-02-03T13:14:44.550Z,45.75
2023-02-03T13:17:13.514Z,45.86
2023-02-03T13:19:44.860Z,46.12
2023-02-03T13:22:11.822Z,45.89
2023-02-03T13:24:38.183Z,45.80
2023-02-03T13:27:09.142Z,45.81
2023-02-03T13:29:47.621Z,46.12
2023-02-03T13:32:24.442Z,45.96
2023-02-03T13:34:53.258Z,45.85
2023-02-03T13:37:23.178Z,46.04
2023-02-03T13:39:52.245Z,46.07
2023-02-03T13:42:19.969Z,46.17
2023-02-03T13:44:46.460Z,46.20
2023-02-03T13:47:19.875Z,46.00
2023-02-03T13:49:48.700Z,46.11
2023-02-03T13:52:24.927Z,45.95
2023-02-03T13:54:51.619Z,46.00
2023-02-03T13:57:19.729Z,45.89
2023-02-03T13:59:46.066Z,45.99
2023-02-03T14:02:21.683Z,46.11
2023-02-03T14:04:48.028Z,46.34
2023-02-03T14:07:33.412Z,46.15
2023-02-03T14:10:09.334Z,46.48
2023-02-03T14:12:36.376Z,46.55
2023-02-03T14:15:22.950Z,46.62
2023-02-03T14:17:52.114Z,46.48
2023-02-03T14:20:27.593Z,46.30
2023-02-03T14:22:56.709Z,46.11
2023-02-03T14:25:23.034Z,46.19
2023-02-03T14:27:49.374Z,46.13
2023-02-03T14:30:16.817Z,46.13
2023-02-03T14:32:55.146Z,46.45
2023-02-03T14:35:21.931Z,46.44
2023-02-03T14:37:54.953Z,46.37
2023-02-03T14:40:25.587Z,46.73
2023-02-03T14:43:12.235Z,46.60
2023-02-03T14:45:51.078Z,46.90
2023-02-03T14:48:23.146Z,46.53
2023-02-03T14:50:55.459Z,46.72
2023-02-03T14:53:24.579Z,46.40
2023-02-03T14:56:02.038Z,46.49
2023-02-03T14:58:36.041Z,46.78
2023-02-03T15:01:05.556Z,46.69
2023-02-03T15:03:31.963Z,46.53
2023-02-03T15:05:59.319Z,46.35
2023-02-03T15:08:33.359Z,46.57
2023-02-03T15:11:00.143Z,46.37
2023-02-03T15:13:26.923Z,46.12
2023-02-03T15:15:53.889Z,46.25
2023-02-03T15:18:21.147Z,46.52
2023-02-03T15:20:47.560Z,46.65
2023-02-03T15:23:20.751Z,46.47
2023-02-03T15:25:52.452Z,46.12
2023-02-03T15:28:19.654Z,46.50
2023-02-03T15:30:46.627Z,46.57
2023-02-03T15:33:17.023Z,46.59
2023-02-03T15:35:43.369Z,46.45
2023-02-03T15:38:17.408Z,46.40
2023-02-03T15:40:44.496Z,46.45
2023-02-03T15:43:16.430Z,46.45
2023-02-03T15:46:00.066Z,46.67
2023-02-03T15:48:29.444Z,46.38
2023-02-03T15:51:09.170Z,46.48
2023-02-03T15:53:49.219Z,46.36
2023-02-03T15:56:18.307Z,46.48
2023-02-03T15:58:45.142Z,46.49
2023-02-03T16:01:12.379Z,46.43
2023-02-03T16:03:39.463Z,46.44
2023-02-03T16:06:07.352Z,46.43
2023-02-03T16:08:36.408Z,46.45
2023-02-03T16:11:20.107Z,46.70
2023-02-03T16:13:46.507Z,46.52
2023-02-03T16:16:15.131Z,46.87
2023-02-03T16:18:41.502Z,46.81
2023-02-03T16:21:21.448Z,46.73
2023-02-03T16:23:50.793Z,47.00
2023-02-03T16:26:18.494Z,44.49
2023-02-03T16:29:13.582Z,44.94
2023-02-03T16:32:00.023Z,43.19
2023-02-03T16:34:45.145Z,43.85
2023-02-03T16:37:31.041Z,43.97
2023-02-03T16:40:15.788Z,44.14
2023-02-03T16:43:04.087Z,44.32
2023-02-03T16:45:49.067Z,44.19
2023-02-03T16:48:34.013Z,44.30
2023-02-03T16:51:02.570Z,44.80
2023-02-03T16:53:30.229Z,44.64
2023-02-03T16:55:57.106Z,44.96
2023-02-03T16:58:23.475Z,44.83
2023-02-03T17:00:50.220Z,45.30
2023-02-03T17:03:17.327Z,45.29
2023-02-03T17:05:43.999Z,45.19
2023-02-03T17:08:10.319Z,45.50
2023-02-03T17:10:37.293Z,45.46
2023-02-03T17:13:03.748Z,45.25
2023-02-03T17:15:30.352Z,45.54
2023-02-03T17:17:58.165Z,45.35
2023-02-03T17:20:24.528Z,45.87
2023-02-03T17:22:54.274Z,45.58
2023-02-03T17:25:20.834Z,45.83
2023-02-03T17:27:47.241Z,45.81
2023-02-03T17:30:13.742Z,46.12
2023-02-03T17:32:40.065Z,45.56
2023-02-03T17:35:06.440Z,45.84
2023-02-03T17:37:33.169Z,44.66
2023-02-03T17:53:49.003Z,44.14
2023-02-03T17:56:19.446Z,44.35
2023-02-03T17:58:45.792Z,44.75
2023-02-03T18:01:15.842Z,44.76
2023-02-03T18:03:43.533Z,44.53
2023-02-03T18:06:09.856Z,44.94
2023-02-03T18:08:36.157Z,45.03
2023-02-03T18:11:03.108Z,44.82
2023-02-03T18:13:29.631Z,44.97
2023-02-03T18:15:56.302Z,45.15
2023-02-03T18:18:23.090Z,45.48
2023-02-03T18:20:49.399Z,45.49
2023-02-03T18:23:15.717Z,45.29
2023-02-03T18:25:42.163Z,45.55
2023-02-03T18:28:08.519Z,45.78
2023-02-03T18:30:35.052Z,45.63
2023-02-03T18:33:01.944Z,45.32
2023-02-03T18:35:29.539Z,45.64
2023-02-03T18:37:55.906Z,45.29
2023-02-03T18:40:22.242Z,45.29
2023-02-03T18:42:48.562Z,45.35
2023-02-03T18:45:14.937Z,45.43
2023-02-03T18:47:41.352Z,45.91
2023-02-03T18:50:07.702Z,45.95
2023-02-03T18:52:34.072Z,46.34
2023-02-03T18:55:00.402Z,46.17
2023-02-03T18:57:26.772Z,45.81
2023-02-03T18:59:53.150Z,45.83
2023-02-03T19:02:19.507Z,46.04
2023-02-03T19:04:45.895Z,45.77
2023-02-03T19:07:12.387Z,45.92
2023-02-03T19:09:39.925Z,45.75
2023-02-03T19:12:06.937Z,46.01
2023-02-03T19:14:33.275Z,46.06
2023-02-03T19:16:59.600Z,45.81
2023-02-03T19:19:25.959Z,46.04
2023-02-03T19:21:52.290Z,45.96
2023-02-03T19:24:19.775Z,46.20
2023-02-03T19:26:46.206Z,46.21
2023-02-03T19:29:12.518Z,45.93
2023-02-03T19:31:39.059Z,46.12
2023-02-03T19:34:05.774Z,46.17
2023-02-03T19:36:32.101Z,45.97
2023-02-03T19:38:58.469Z,46.21
2023-02-03T19:41:26.237Z,46.15
2023-02-03T19:43:52.671Z,46.26
2023-02-03T19:46:21.224Z,46.29
2023-02-03T19:48:47.870Z,46.16
2023-02-03T19:51:14.207Z,46.24
2023-02-03T19:53:40.552Z,46.00
2023-02-03T19:56:06.952Z,46.24
2023-02-03T19:58:33.294Z,46.26
2023-02-03T20:00:59.636Z,46.41
2023-02-03T20:03:25.986Z,46.39
2023-02-03T20:05:55.016Z,46.09
2023-02-03T20:08:21.377Z,46.16
2023-02-03T20:10:47.736Z,46.37
2023-02-03T20:13:14.076Z,46.18
2023-02-03T20:15:40.473Z,46.25
2023-02-03T20:18:06.850Z,46.26
2023-02-03T20:20:33.284Z,46.08
2023-02-03T20:22:59.590Z,46.13
2023-02-03T20:25:25.897Z,46.26
2023-02-03T20:27:53.740Z,46.21
2023-02-03T20:30:20.147Z,46.18
2023-02-03T20:32:47.252Z,46.19
2023-02-03T20:35:13.585Z,46.13
2023-02-03T20:37:39.958Z,46.22
2023-02-03T20:40:06.822Z,46.17
2023-02-03T20:42:33.151Z,46.06
2023-02-03T20:44:59.490Z,46.11
2023-02-03T20:47:25.822Z,46.32
2023-02-03T20:49:52.229Z,46.35
2023-02-03T20:52:19.716Z,46.38
2023-02-03T20:54:46.254Z,46.36
2023-02-03T20:57:13.233Z,46.30
2023-02-03T20:59:39.544Z,46.32
2023-02-03T21:02:17.494Z,46.44
2023-02-03T21:04:59.143Z,46.24
2023-02-03T21:07:30.435Z,46.30
2023-02-03T21:09:57.518Z,46.13
2023-02-03T21:12:24.031Z,46.35
2023-02-03T21:14:52.799Z,46.27
2023-02-03T21:17:25.826Z,46.43
2023-02-03T21:19:52.443Z,46.35
2023-02-03T21:22:23.394Z,46.30
2023-02-03T21:24:53.380Z,46.09
2023-02-03T21:27:24.327Z,46.30
2023-02-03T21:30:18.399Z,46.43
2023-02-03T21:32:44.799Z,46.47
2023-02-03T21:35:23.761Z,46.44
2023-02-03T21:37:51.930Z,46.28
2023-02-03T21:40:21.844Z,46.37
2023-02-03T21:42:48.175Z,46.57
2023-02-03T21:45:14.579Z,46.55
2023-02-03T21:47:41.006Z,46.37
2023-02-03T21:50:25.886Z,46.68
2023-02-03T21:52:52.415Z,46.79
2023-02-03T21:55:18.753Z,46.76
2023-02-03T21:57:46.443Z,46.71
2023-02-03T22:00:32.237Z,46.52
2023-02-03T22:02:58.851Z,46.66
2023-02-03T22:05:25.238Z,46.64
2023-02-03T22:07:51.580Z,46.57
2023-02-03T22:10:17.910Z,46.72
2023-02-03T22:12:44.278Z,46.55
2023-02-03T22:15:10.703Z,46.61
2023-02-03T22:17:37.083Z,46.47
2023-02-03T22:20:03.416Z,46.49
2023-02-03T22:22:31.715Z,46.47
2023-02-03T22:24:58.148Z,46.68
2023-02-03T22:27:25.449Z,46.73
2023-02-03T22:29:51.834Z,46.65
2023-02-03T22:32:18.158Z,46.68
2023-02-03T22:34:44.506Z,46.41
2023-02-03T22:37:10.854Z,46.52
2023-02-03T22:39:37.190Z,46.36
2023-02-03T22:42:03.563Z,46.74
2023-02-03T22:44:29.866Z,46.75
2023-02-03T22:46:56.635Z,46.72
2023-02-03T22:49:22.952Z,46.88
2023-02-03T22:51:49.278Z,46.85
2023-02-03T22:54:15.603Z,47.03
2023-02-03T22:56:41.944Z,46.92
2023-02-03T22:59:08.265Z,46.85
2023-02-03T23:01:34.647Z,47.00
2023-02-03T23:04:00.995Z,47.02
2023-02-03T23:06:27.335Z,47.20
2023-02-03T23:08:55.320Z,47.06
2023-02-03T23:11:21.659Z,47.13
2023-02-03T23:13:48.950Z,47.27
2023-02-03T23:16:15.415Z,47.27
2023-02-03T23:18:41.778Z,47.16
2023-02-03T23:21:08.125Z,47.06
2023-02-03T23:23:37.387Z,47.01
2023-02-03T23:26:03.717Z,47.11
2023-02-03T23:28:30.078Z,47.16
2023-02-03T23:30:56.540Z,47.34
2023-02-03T23:33:22.976Z,47.20
2023-02-03T23:35:50.635Z,47.18
2023-02-03T23:38:17.026Z,47.13
2023-02-03T23:40:43.395Z,47.20
2023-02-03T23:43:09.758Z,47.31
2023-02-03T23:45:36.079Z,46.97
2023-02-03T23:48:02.434Z,47.22
2023-02-03T23:50:28.974Z,47.01
2023-02-03T23:52:55.478Z,47.14
2023-02-03T23:55:23.357Z,47.26
2023-02-03T23:57:49.684Z,47.20
